Flight Track Log - Related Links

Times and Time Zones

All times are in EDT time to prevent confusion due to time zone crossing. See the RPA3161 flight status page for this flight to view local times or setup timezone preferences in your user account.

Time Position Orientation Groundspeed Altitude Reporting Facility
EDT Latitude Longitude Course Direction KTS MPH feet Rate Location/Type
Sat 12:29:15 PM 44.4792 -73.2575 195° South 202 232 4,200  Level Boston Center
Sat 12:30:00 PM 44.0638 -73.3009 194° South  Level FlightAware Approximate
Sat 12:30:15 PM 44.4100 -73.3147 211° Southwest 228 262 7,400  Level Boston Center
Sat 12:31:00 PM 43.9620 -73.3349 194° South  Level FlightAware Approximate
Sat 12:31:15 PM 44.3431 -73.3689 210° Southwest 276 318 10,200  Level Boston Center
Sat 12:32:00 PM 43.8606 -73.3711 195° South  Level FlightAware Approximate
Sat 12:32:15 PM 44.2614 -73.4142 202° Southwest 308 354 12,000  Level Boston Center
Sat 12:33:00 PM 43.7595 -73.4090 195° South  Level FlightAware Approximate
Sat 12:33:15 PM 44.1675 -73.4414 192° South 340 391 14,400  Level Boston Center
Sat 12:34:00 PM 43.6584 -73.4469 195° South  Level FlightAware Approximate
Sat 12:34:15 PM 44.0672 -73.4686 191° South 361 415 16,500  Level Boston Center
Sat 12:35:15 PM 43.9669 -73.4931 190° South 373 429 18,700 1,950 Climbing Boston Center
Sat 12:36:15 PM 43.8625 -73.5228 192° South 378 435 20,400 1,600 Climbing Boston Center
Sat 12:37:15 PM 43.7497 -73.5494 190° South 383 441 21,900 1,500 Climbing Boston Center
Sat 12:38:15 PM 43.6389 -73.5761 190° South 411 473 23,400 1,550 Climbing Boston Center
Sat 12:39:15 PM 43.5219 -73.6056 190° South 416 479 25,000 1,550 Climbing Boston Center
Sat 12:40:15 PM 43.4069 -73.6289 188° South 422 486 26,500 1,850 Climbing Boston Center
Sat 12:41:15 PM 43.2839 -73.6381 183° South 433 498 28,700 1,750 Climbing Boston Center
Sat 12:42:15 PM 43.1631 -73.6442 182° South 433 498 30,000 650 Climbing Boston Center
Sat 12:43:15 PM 43.0525 -73.6561 185° South 446 513 30,000  Level Boston Center
Sat 12:44:15 PM 42.9169 -73.6678 184° South 446 513 30,000  Level Boston Center
Sat 12:45:15 PM 42.7958 -73.6767 183° South 441 507 30,000  Level Boston Center
Sat 12:46:15 PM 42.6728 -73.6883 184° South 441 507 30,000  Level Boston Center
Sat 12:47:15 PM 42.5478 -73.6997 184° South 441 507 30,000  Level Boston Center
Sat 12:48:15 PM 42.4267 -73.7086 183° South 441 507 30,000  Level Boston Center
Sat 12:49:15 PM 42.3014 -73.7172 183° South 441 507 30,000  Level Boston Center
Sat 12:50:15 PM 42.1806 -73.7261 183° South 441 507 30,000  Level Boston Center
Sat 12:51:15 PM 42.0553 -73.7347 183° South 441 507 30,000  Level Boston Center
Sat 12:53:13 PM 41.8133 -73.7489 182° South 431 496 30,000  Level New York Center
Sat 12:54:14 PM 41.6922 -73.7575 183° South 437 503 30,000  Level New York Center
Sat 12:55:15 PM 41.5733 -73.7661 183° South 439 505 30,000  Level New York Center
Sat 12:56:15 PM 41.4675 -73.8386 207° Southwest 420 483 30,000  Level New York Center
Sat 12:57:15 PM 41.3694 -73.9228 213° Southwest 412 474 30,000  Level New York Center
Sat 12:58:13 PM 41.2694 -74.0061 212° Southwest 423 487 30,000  Level New York Center
Sat 12:59:13 PM 41.1753 -74.0900 214° Southwest 428 493 30,000  Level New York Center
Sat 01:00:14 PM 41.0753 -74.1703 211° Southwest 421 484 30,000  Level New York Center
Sat 01:01:14 PM 40.9836 -74.2400 210° Southwest 421 484 30,000 -50 Level New York Center
Sat 01:02:14 PM 40.8875 -74.3200 212° Southwest 421 484 29,900 -992 Descending New York Center
Sat 01:03:15 PM 40.7933 -74.4028 214° Southwest 421 484 28,000 -942 Descending New York Center
Sat 01:04:15 PM 40.7231 -74.5142 230° Southwest 410 472 28,000  Level New York Center
Sat 01:05:15 PM 40.6550 -74.6225 230° Southwest 394 453 28,000  Level New York Center
Sat 01:06:13 PM 40.5844 -74.7389 231° Southwest 399 459 28,000  Level New York Center
Sat 01:07:13 PM 40.5100 -74.8436 227° Southwest 399 459 28,000  Level New York Center
Sat 01:08:14 PM 40.4356 -74.9483 227° Southwest 399 459 28,000 -50 Level New York Center
Sat 01:09:14 PM 40.3608 -75.0556 228° Southwest 399 459 27,900 -1,000 Descending New York Center
Sat 01:10:14 PM 40.2861 -75.1625 228° Southwest 404 465 26,000 -1,983 Descending New York Center
Sat 01:11:15 PM 40.2114 -75.2664 227° Southwest 399 459 23,900 -1,983 Descending New York Center
Sat 01:12:15 PM 40.1383 -75.3731 228° Southwest 399 459 22,000 -966 Descending New York Center
Sat 01:13:13 PM 40.0656 -75.4742 227° Southwest 399 459 22,000  Level New York Center
Sat 01:14:15 PM 39.9906 -75.5747 226° Southwest 399 459 22,000 -197 Level New York Center
Sat 01:15:15 PM 39.9197 -75.6781 228° Southwest 394 453 21,600 -706 Descending New York Center
Sat 01:16:14 PM 39.8611 -75.7822 234° Southwest 381 438 20,600 -1,000 Descending New York Center
Sat 01:17:15 PM 39.8064 -75.8917 237° Southwest 370 426 19,600 -1,033 Descending New York Center
Sat 01:18:16 PM 39.7497 -75.9931 234° Southwest 355 409 18,500 -1,210 Descending New York Center
Sat 01:19:14 PM 39.6953 -76.0942 235° Southwest 350 403 17,200 -1,949 Descending New York Center
Sat 01:20:13 PM 39.6428 -76.1953 236° Southwest 345 397 14,700 -1,922 Descending New York Center
Sat 01:21:22 PM 39.5667 -76.3167 231° Southwest 330 380 13,100 -1,062 Descending Potomac TRACON
Sat 01:22:23 PM 39.5000 -76.3833 218° Southwest 332 382 12,400 -545 Descending Potomac TRACON
Sat 01:23:23 PM 39.4167 -76.4500 212° Southwest 326 375 12,000 -200 Descending Potomac TRACON
Sat 01:24:23 PM 39.3333 -76.5167 212° Southwest 325 374 12,000  Level Potomac TRACON
Sat 01:25:23 PM 39.2667 -76.5833 218° Southwest 327 376 12,000 -893 Level Potomac TRACON
Sat 01:26:24 PM 39.1833 -76.6500 212° Southwest 326 375 10,200 -992 Descending Potomac TRACON
Sat 01:27:24 PM 39.1333 -76.7167 226° Southwest 293 337 10,000 -100 Descending Potomac TRACON
Sat 01:28:24 PM 39.0667 -76.7833 218° Southwest 294 338 10,000 -900 Level Potomac TRACON
Sat 01:29:24 PM 39.0000 -76.8500 218° Southwest 287 330 8,200 -1,700 Descending Potomac TRACON
Sat 01:30:24 PM 38.9500 -76.9167 226° Southwest 272 313 6,600 -1,150 Descending Potomac TRACON
Sat 01:31:24 PM 38.8833 -76.9500 201° Southwest 273 314 5,900 -700 Descending Potomac TRACON

Login

Don't have an account? Register now (free) for customized features, flight alerts, and more!